Time;durP1;ratioP1;P1;durP2;ratioP2;P2;SDS_P1;SDS_P2;PMS_P1;PMS_P2;Temp;Humidity;BMP_temperature;BMP_pressure;BME280_temperature;BME280_humidity;BME280_pressure;Samples;Min_cycle;Max_cycle;Signal;HPM_P1;HPM_P2
2024/04/07 00:00:48;;;;;;;2.25;1.30;;;;;;;12.67;88.29;96610.47;7401397;19;20031;-55
2024/04/07 00:03:17;;;;;;;2.78;1.38;;;;;;;12.55;92.12;96611.88;7400298;19;20006;-58
2024/04/07 00:05:43;;;;;;;2.15;1.13;;;;;;;12.25;94.38;96615.81;7401158;19;20097;-55
2024/04/07 00:08:08;;;;;;;2.67;1.50;;;;;;;12.25;91.69;96630.69;7400114;19;20496;-54
2024/04/07 00:10:37;;;;;;;8.82;4.45;;;;;;;12.30;90.07;96620.84;7400931;19;19998;-59
2024/04/07 00:13:04;;;;;;;44.90;19.05;;;;;;;12.02;91.65;96619.41;7400775;19;20002;-55
2024/04/07 00:15:30;;;;;;;29.65;12.95;;;;;;;11.91;94.40;96622.47;7400647;19;20014;-56
2024/04/07 00:17:56;;;;;;;19.55;7.80;;;;;;;11.63;98.20;96627.06;7400574;19;20050;-57
2024/04/07 00:20:21;;;;;;;15.32;4.20;;;;;;;11.55;100.00;96633.53;7400555;19;20035;-59
2024/04/07 00:22:47;;;;;;;7.15;4.50;;;;;;;11.55;100.00;96625.69;7400457;19;19999;-57
2024/04/07 00:25:13;;;;;;;6.95;3.13;;;;;;;11.44;100.00;96632.22;7400361;19;20003;-55
2024/04/07 00:27:38;;;;;;;5.75;3.33;;;;;;;11.35;100.00;96619.50;7400100;19;20003;-53
2024/04/07 00:30:05;;;;;;;5.07;3.50;;;;;;;11.30;100.00;96610.97;7400196;19;19999;-57
2024/04/07 00:32:30;;;;;;;13.40;5.43;;;;;;;11.19;100.00;96622.72;7400152;19;20076;-60
2024/04/07 00:34:56;;;;;;;15.60;7.90;;;;;;;11.41;100.00;96621.84;7400232;19;19998;-56
2024/04/07 00:37:21;;;;;;;28.38;11.50;;;;;;;11.44;100.00;96613.03;7400016;19;19999;-59
2024/04/07 00:39:47;;;;;;;36.80;15.90;;;;;;;11.40;100.00;96614.91;7400089;19;19999;-57
2024/04/07 00:42:14;;;;;;;39.83;16.10;;;;;;;11.05;100.00;96607.53;7400037;19;20005;-52
2024/04/07 00:44:39;;;;;;;26.98;13.13;;;;;;;11.25;100.00;96598.06;7400264;19;20002;-57
2024/04/07 00:47:05;;;;;;;20.50;9.43;;;;;;;11.31;100.00;96613.53;7399773;19;20370;-53
2024/04/07 00:49:31;;;;;;;12.57;6.90;;;;;;;11.25;100.00;96629.47;7397768;19;20005;-55
2024/04/07 00:51:58;;;;;;;7.05;3.90;;;;;;;11.24;100.00;96640.88;7399522;19;20019;-56
2024/04/07 00:54:25;;;;;;;5.72;3.67;;;;;;;11.14;100.00;96645.63;7399346;19;20529;-58
2024/04/07 00:56:51;;;;;;;5.38;3.42;;;;;;;11.07;100.00;96649.38;7399367;19;20070;-56
2024/04/07 00:59:17;;;;;;;5.70;3.38;;;;;;;10.97;100.00;96626.19;7399533;19;20353;-58
2024/04/07 01:01:43;;;;;;;5.78;3.42;;;;;;;10.90;100.00;96626.47;7399476;19;19998;-57
2024/04/07 01:04:09;;;;;;;4.78;3.17;;;;;;;10.95;100.00;96627.13;7397486;19;20416;-56
2024/04/07 01:06:34;;;;;;;6.43;2.75;;;;;;;11.17;100.00;96632.38;7399074;19;20007;-57
2024/04/07 01:09:00;;;;;;;4.15;2.67;;;;;;;11.33;100.00;96630.03;7396735;19;20005;-57
2024/04/07 01:11:27;;;;;;;5.38;3.00;;;;;;;11.45;100.00;96633.06;7398940;19;19998;-58
2024/04/07 01:13:53;;;;;;;5.60;2.88;;;;;;;11.50;100.00;96625.91;7397448;19;20010;-54
2024/04/07 01:16:20;;;;;;;5.88;2.60;;;;;;;11.51;100.00;96627.59;7399437;19;20013;-55
2024/04/07 01:18:46;;;;;;;6.10;2.63;;;;;;;11.40;100.00;96627.16;7398928;19;20044;-57
2024/04/07 01:21:12;;;;;;;5.15;2.90;;;;;;;11.32;100.00;96617.00;7399457;19;20003;-52
2024/04/07 01:23:37;;;;;;;8.52;3.30;;;;;;;11.08;100.00;96614.44;7398665;19;20027;-55
2024/04/07 01:26:03;;;;;;;7.45;2.63;;;;;;;11.11;100.00;96609.94;7398284;19;20003;-57
2024/04/07 01:28:28;;;;;;;5.05;2.67;;;;;;;11.12;100.00;96609.03;7397973;19;20026;-57
2024/04/07 01:30:54;;;;;;;5.53;2.80;;;;;;;11.08;100.00;96604.81;7398573;19;19998;-60
2024/04/07 01:33:20;;;;;;;6.43;3.20;;;;;;;11.15;100.00;96604.56;7398238;19;19999;-58
2024/04/07 01:35:46;;;;;;;6.10;2.80;;;;;;;11.18;100.00;96601.84;7398421;19;20003;-53
2024/04/07 01:38:12;;;;;;;5.18;2.60;;;;;;;11.19;100.00;96603.53;7397992;19;20003;-55
2024/04/07 01:40:38;;;;;;;7.60;3.35;;;;;;;11.09;100.00;96601.28;7397881;19;20023;-53
2024/04/07 01:43:04;;;;;;;6.45;3.35;;;;;;;11.04;100.00;96598.00;7398116;19;20011;-55
2024/04/07 01:45:30;;;;;;;6.68;2.90;;;;;;;10.91;100.00;96599.38;7397707;19;20006;-56
2024/04/07 01:47:55;;;;;;;5.13;2.97;;;;;;;11.04;100.00;96595.38;7397184;19;20039;-57
2024/04/07 01:50:21;;;;;;;7.10;3.08;;;;;;;11.01;100.00;96597.28;7397952;19;19998;-57
2024/04/07 01:52:47;;;;;;;4.43;2.92;;;;;;;11.08;100.00;96590.88;7397885;19;20452;-56
2024/04/07 01:55:12;;;;;;;4.78;2.72;;;;;;;11.09;100.00;96587.34;7397524;19;20460;-59
2024/04/07 01:57:38;;;;;;;5.13;2.63;;;;;;;11.16;100.00;96587.94;7397322;19;19995;-57
2024/04/07 02:00:07;;;;;;;4.25;2.30;;;;;;;11.12;100.00;96577.63;7397315;19;19999;-57
2024/04/07 02:02:34;;;;;;;3.65;2.75;;;;;;;11.11;100.00;96586.38;7397530;19;20043;-53
2024/04/07 02:04:59;;;;;;;6.00;2.90;;;;;;;10.95;100.00;96578.25;7395209;19;20003;-59
2024/04/07 02:07:26;;;;;;;6.00;3.10;;;;;;;11.07;100.00;96571.69;7397417;19;20014;-57
2024/04/07 02:09:51;;;;;;;5.05;2.97;;;;;;;11.16;100.00;96561.75;7395493;19;20018;-58
2024/04/07 02:12:17;;;;;;;5.47;3.33;;;;;;;11.20;100.00;96556.34;7396864;19;20003;-53
2024/04/07 02:14:43;;;;;;;7.22;3.10;;;;;;;11.08;100.00;96549.81;7397138;19;19998;-59
2024/04/07 02:17:11;;;;;;;10.50;3.25;;;;;;;10.91;100.00;96550.50;7396598;19;20003;-56
2024/04/07 02:19:37;;;;;;;9.05;4.07;;;;;;;10.77;100.00;96558.06;7396032;19;19995;-55
2024/04/07 02:22:04;;;;;;;7.70;4.72;;;;;;;10.62;100.00;96562.94;7395778;19;20015;-56
2024/04/07 02:24:30;;;;;;;6.03;4.22;;;;;;;10.72;100.00;96558.22;7395473;19;19999;-55
2024/04/07 02:26:56;;;;;;;6.32;3.40;;;;;;;10.64;100.00;96560.28;7396296;19;20094;-57
2024/04/07 02:29:22;;;;;;;6.30;3.45;;;;;;;10.76;100.00;96562.44;7394951;19;19999;-56
2024/04/07 02:31:47;;;;;;;3.78;3.00;;;;;;;10.71;100.00;96561.72;7396530;19;20001;-55
2024/04/07 02:34:13;;;;;;;3.92;3.22;;;;;;;10.76;100.00;96564.19;7396158;19;20025;-58
2024/04/07 02:36:40;;;;;;;5.15;3.47;;;;;;;10.87;100.00;96568.09;7396004;19;20058;-57
2024/04/07 02:39:09;;;;;;;5.70;3.80;;;;;;;10.91;100.00;96563.59;7396088;19;20006;-57
2024/04/07 02:41:40;;;;;;;6.78;3.92;;;;;;;10.94;100.00;96563.47;7395830;19;20002;-57
2024/04/07 02:44:06;;;;;;;10.32;2.90;;;;;;;10.68;100.00;96556.63;7396079;19;20022;-56
2024/04/07 02:49:16;;;;;;;4.60;3.60;;;;;;;10.47;100.00;96564.38;7394610;19;20005;-58
2024/04/07 02:51:42;;;;;;;5.20;3.22;;;;;;;10.46;100.00;96566.16;7395600;19;19999;-59
2024/04/07 02:54:09;;;;;;;4.60;3.17;;;;;;;10.40;100.00;96563.72;7395484;19;20006;-55
2024/04/07 02:56:35;;;;;;;6.10;3.22;;;;;;;10.40;100.00;96561.09;7395430;19;20345;-57
2024/04/07 02:59:01;;;;;;;5.18;3.45;;;;;;;10.40;100.00;96557.63;7395334;19;19995;-55
2024/04/07 03:01:27;;;;;;;4.45;3.10;;;;;;;10.30;100.00;96555.34;7395417;19;19995;-56
2024/04/07 03:03:52;;;;;;;6.80;3.00;;;;;;;10.22;100.00;96557.41;7394266;19;20003;-59
2024/04/07 03:06:19;;;;;;;3.13;2.78;;;;;;;10.21;100.00;96553.94;7395276;19;20078;-55
2024/04/07 03:08:45;;;;;;;4.20;2.40;;;;;;;10.23;100.00;96556.47;7394182;19;20012;-55
2024/04/07 03:11:10;;;;;;;3.50;2.40;;;;;;;10.01;100.00;96569.47;7395406;19;19998;-59
2024/04/07 03:13:36;;;;;;;3.80;2.15;;;;;;;9.96;100.00;96567.00;7395373;19;20375;-57
2024/04/07 03:16:08;;;;;;;7.45;2.92;;;;;;;9.52;100.00;96562.44;7394855;19;20022;-57
2024/04/07 03:18:33;;;;;;;5.78;1.92;;;;;;;9.62;100.00;96566.44;7394929;19;20457;-57
2024/04/07 03:20:59;;;;;;;3.50;2.08;;;;;;;9.52;100.00;96558.06;7395503;19;20010;-59
2024/04/07 03:23:24;;;;;;;4.30;1.73;;;;;;;9.16;100.00;96564.44;7395335;19;20461;-55
2024/04/07 03:25:50;;;;;;;3.25;1.98;;;;;;;9.15;100.00;96567.94;7394750;19;20354;-51
2024/04/07 03:28:15;;;;;;;5.35;2.95;;;;;;;9.14;100.00;96567.97;7393901;19;20018;-56
2024/04/07 03:30:42;;;;;;;3.55;2.60;;;;;;;9.20;100.00;96575.63;7394496;19;20013;-55
2024/04/07 03:33:07;;;;;;;4.90;2.10;;;;;;;9.13;100.00;96574.13;7401065;19;20000;-55
2024/04/07 03:35:33;;;;;;;2.85;0.80;;;;;;;9.06;100.00;96573.47;7402032;19;20005;-56
2024/04/07 03:37:59;;;;;;;1.95;1.52;;;;;;;9.35;100.00;96580.34;7402066;19;19998;-55
2024/04/07 03:40:25;;;;;;;2.90;2.15;;;;;;;9.53;100.00;96585.00;7401794;19;19999;-59
2024/04/07 03:42:50;;;;;;;2.88;2.30;;;;;;;9.55;100.00;96580.59;7401927;19;20358;-55
2024/04/07 03:45:17;;;;;;;2.75;2.33;;;;;;;9.53;100.00;96585.88;7401824;19;19999;-49
2024/04/07 03:47:43;;;;;;;2.15;1.98;;;;;;;9.48;100.00;96586.03;7401843;19;20006;-57
2024/04/07 03:50:09;;;;;;;3.95;2.63;;;;;;;9.45;100.00;96587.91;7401590;19;20022;-54
2024/04/07 03:52:35;;;;;;;4.30;3.90;;;;;;;9.38;100.00;96584.63;7401948;19;20003;-59
2024/04/07 03:55:02;;;;;;;1.20;1.10;;;;;;;9.04;100.00;96591.78;7401508;19;19995;-57
2024/04/07 03:57:28;;;;;;;1.13;1.02;;;;;;;9.07;100.00;96598.66;7401838;19;20010;-55
2024/04/07 03:59:54;;;;;;;16.10;12.15;;;;;;;9.38;100.00;96600.28;7401269;19;20378;-56
2024/04/07 04:02:30;;;;;;;3.28;2.00;;;;;;;9.28;100.00;96606.72;7401164;19;20006;-56
2024/04/07 04:04:59;;;;;;;3.50;1.23;;;;;;;9.04;100.00;96594.38;7398520;19;20070;-57
2024/04/07 04:07:27;;;;;;;0.90;0.90;;;;;;;9.00;100.00;96591.91;7401122;19;20014;-57
2024/04/07 04:09:54;;;;;;;3.58;1.77;;;;;;;9.18;100.00;96587.88;7398221;19;20063;-58
2024/04/07 04:12:20;;;;;;;0.98;0.98;;;;;;;8.94;100.00;96585.13;7400869;19;20014;-57
2024/04/07 04:14:46;;;;;;;3.45;1.10;;;;;;;8.99;100.00;96606.72;7400752;19;20496;-57
2024/04/07 04:17:13;;;;;;;1.05;1.02;;;;;;;9.01;100.00;96606.66;7400620;19;20003;-57
2024/04/07 04:19:39;;;;;;;2.25;1.45;;;;;;;9.10;100.00;96616.81;7400767;19;20329;-56
2024/04/07 04:22:05;;;;;;;0.90;0.90;;;;;;;9.22;100.00;96626.03;7400697;19;20013;-58
2024/04/07 04:24:31;;;;;;;1.45;1.10;;;;;;;9.12;100.00;96622.84;7400532;19;19990;-59
2024/04/07 04:26:57;;;;;;;0.90;0.90;;;;;;;9.17;100.00;96622.69;7400422;19;20002;-56
2024/04/07 04:29:22;;;;;;;2.45;0.90;;;;;;;9.16;100.00;96629.69;7398187;19;19998;-60
2024/04/07 04:31:48;;;;;;;1.52;0.80;;;;;;;9.63;100.00;96622.16;7400310;19;20003;-56
2024/04/07 04:34:13;;;;;;;1.90;1.13;;;;;;;9.42;100.00;96622.78;7398639;19;20066;-56
2024/04/07 04:36:39;;;;;;;2.55;2.20;;;;;;;9.60;100.00;96628.31;7400400;19;19998;-56
2024/04/07 04:39:06;;;;;;;2.00;1.50;;;;;;;9.60;100.00;96626.56;7400088;19;20351;-58
2024/04/07 04:41:32;;;;;;;1.15;1.00;;;;;;;9.60;100.00;96634.38;7399893;19;20496;-55
2024/04/07 04:43:58;;;;;;;1.77;1.42;;;;;;;9.67;100.00;96628.97;7398381;19;20069;-55
2024/04/07 04:46:25;;;;;;;1.58;1.13;;;;;;;9.54;100.00;96633.75;7399742;19;20012;-56
2024/04/07 04:48:51;;;;;;;2.15;1.60;;;;;;;11.86;100.00;96648.88;7398592;19;20062;-58
2024/04/07 04:51:17;;;;;;;1.30;1.20;;;;;;;15.36;76.98;96653.31;7399726;19;20017;-55
2024/04/07 04:53:43;;;;;;;4.15;1.15;;;;;;;17.57;64.34;96661.50;7399706;19;19994;-56
2024/04/07 04:56:08;;;;;;;1.88;0.80;;;;;;;17.89;60.16;96669.13;7399957;19;20062;-56
2024/04/07 04:58:34;;;;;;;1.17;0.60;;;;;;;18.29;59.02;96671.78;7399610;19;20002;-56
2024/04/07 05:01:10;;;;;;;0.88;0.55;;;;;;;18.62;58.96;96687.28;7399299;19;20007;-54
2024/04/07 05:03:37;;;;;;;0.70;0.70;;;;;;;19.82;54.96;96694.84;7398092;19;20019;-55
2024/04/07 05:06:14;;;;;;;0.68;0.68;;;;;;;19.29;56.90;96686.22;7399660;19;20476;-58
2024/04/07 05:08:40;;;;;;;0.95;0.75;;;;;;;18.75;58.90;96685.47;7398100;19;19999;-54
2024/04/07 05:11:07;;;;;;;1.42;0.70;;;;;;;20.12;56.27;96700.69;7399009;19;20495;-59
2024/04/07 05:13:34;;;;;;;0.55;0.55;;;;;;;20.92;53.91;96709.72;7398840;19;19998;-58
2024/04/07 05:16:00;;;;;;;2.13;1.48;;;;;;;20.82;54.46;96703.41;7398872;19;20072;-54
2024/04/07 05:18:26;;;;;;;1.58;0.60;;;;;;;23.07;46.96;96717.34;7399002;19;20001;-57
2024/04/07 05:20:53;;;;;;;0.93;0.60;;;;;;;22.14;49.53;96708.16;7398856;19;20026;-61
2024/04/07 05:23:19;;;;;;;2.03;1.70;;;;;;;21.43;49.55;96709.41;7398452;19;19995;-58
2024/04/07 05:25:45;;;;;;;0.80;0.80;;;;;;;22.56;48.51;96720.69;7398493;19;20015;-59
2024/04/07 05:28:13;;;;;;;0.88;0.73;;;;;;;23.16;44.19;96729.91;7397718;19;20362;-57
2024/04/07 05:30:39;;;;;;;1.20;0.77;;;;;;;21.02;47.42;96719.66;7398378;19;20002;-57
2024/04/07 05:33:06;;;;;;;3.75;0.80;;;;;;;23.63;44.63;96717.03;7398197;19;20347;-59
2024/04/07 05:35:33;;;;;;;1.38;0.93;;;;;;;24.89;42.73;96720.91;7398519;19;20368;-56
2024/04/07 05:38:00;;;;;;;1.55;0.77;;;;;;;23.16;44.56;96708.56;7398414;19;20007;-60
2024/04/07 05:40:25;;;;;;;0.68;0.68;;;;;;;24.41;43.06;96720.81;7398362;19;20345;-58
2024/04/07 05:42:52;;;;;;;0.50;0.50;;;;;;;25.57;41.13;96711.78;7397926;19;19994;-60
2024/04/07 05:45:18;;;;;;;1.15;0.70;;;;;;;23.31;44.53;96708.19;7397802;19;20019;-54
2024/04/07 05:47:54;;;;;;;1.00;0.70;;;;;;;21.47;49.44;96697.53;7397949;19;19998;-57
2024/04/07 05:50:20;;;;;;;2.00;0.80;;;;;;;21.01;48.41;96710.00;7397608;19;20353;-59
2024/04/07 05:52:46;;;;;;;1.48;0.80;;;;;;;21.12;50.05;96704.69;7397896;19;20374;-59
2024/04/07 05:55:12;;;;;;;1.50;1.00;;;;;;;23.46;43.31;96703.34;7395113;19;20054;-59
2024/04/07 05:57:39;;;;;;;2.15;0.77;;;;;;;25.30;42.06;96717.97;7397718;19;19999;-56
2024/04/07 06:00:08;;;;;;;2.40;1.00;;;;;;;22.62;46.03;96713.16;7397242;19;20009;-58
2024/04/07 06:02:34;;;;;;;2.25;1.20;;;;;;;22.19;43.95;96721.91;7397437;19;20002;-59
2024/04/07 06:05:01;;;;;;;1.23;0.80;;;;;;;21.37;49.58;96709.88;7395663;19;20003;-59
2024/04/07 06:07:27;;;;;;;1.55;0.90;;;;;;;23.76;40.34;96719.44;7397064;19;20549;-59
2024/04/07 06:09:53;;;;;;;1.13;0.80;;;;;;;23.68;42.21;96714.78;7395132;19;20002;-60
2024/04/07 06:12:18;;;;;;;2.20;0.95;;;;;;;22.57;43.65;96729.50;7396786;19;20009;-57
2024/04/07 06:14:46;;;;;;;1.67;1.00;;;;;;;23.82;43.21;96722.44;7396853;19;20002;-58
2024/04/07 06:17:12;;;;;;;1.67;1.20;;;;;;;24.51;41.63;96742.19;7396734;19;20094;-57
2024/04/07 06:19:39;;;;;;;1.35;1.05;;;;;;;23.47;44.09;96737.91;7396588;19;20027;-59
2024/04/07 06:22:05;;;;;;;1.60;1.00;;;;;;;20.26;56.97;96720.91;7396574;19;20002;-54
2024/04/07 06:24:31;;;;;;;1.13;0.77;;;;;;;20.19;52.99;96721.38;7396676;19;20021;-57
2024/04/07 06:26:57;;;;;;;1.67;0.80;;;;;;;17.84;57.74;96719.69;7396497;19;20002;-59
2024/04/07 06:29:23;;;;;;;1.77;0.98;;;;;;;17.87;59.35;96727.44;7393527;19;20358;-57
2024/04/07 06:31:49;;;;;;;2.35;1.10;;;;;;;18.35;57.47;96728.78;7396298;19;20062;-58
2024/04/07 06:34:15;;;;;;;1.60;1.10;;;;;;;20.96;49.53;96735.09;7396196;19;20020;-60
2024/04/07 06:36:42;;;;;;;4.13;1.20;;;;;;;20.39;53.01;96737.63;7394595;19;20005;-55
2024/04/07 06:39:08;;;;;;;3.10;1.25;;;;;;;18.19;59.03;96726.31;7395985;19;19999;-59
2024/04/07 06:41:37;;;;;;;1.23;1.10;;;;;;;17.46;63.46;96737.06;7395904;19;20025;-57
2024/04/07 06:44:03;;;;;;;3.08;1.30;;;;;;;15.93;63.43;96740.72;7395861;19;20101;-58
2024/04/07 06:46:29;;;;;;;2.13;1.52;;;;;;;17.96;57.26;96739.22;7395761;19;20472;-57
2024/04/07 06:48:55;;;;;;;1.88;1.25;;;;;;;18.42;55.40;96745.94;7394671;19;20015;-52
2024/04/07 06:51:21;;;;;;;2.83;1.42;;;;;;;18.33;56.92;96738.63;7395673;19;19999;-61
2024/04/07 06:53:47;;;;;;;1.92;1.17;;;;;;;18.60;54.68;96740.38;7396081;19;19999;-60
2024/04/07 06:56:13;;;;;;;3.05;1.85;;;;;;;20.77;49.99;96756.09;7395527;19;20003;-57
2024/04/07 06:58:40;;;;;;;3.67;1.35;;;;;;;17.92;54.54;96743.88;7395446;19;20007;-58
2024/04/07 07:01:09;;;;;;;1.27;1.02;;;;;;;18.03;54.72;96732.56;7395279;19;20003;-60
2024/04/07 07:03:34;;;;;;;5.65;1.23;;;;;;;18.14;55.20;96745.13;7394682;19;20006;-58
2024/04/07 07:06:01;;;;;;;1.55;1.20;;;;;;;18.23;55.66;96738.38;7394568;19;20473;-59
2024/04/07 07:08:27;;;;;;;2.30;1.70;;;;;;;19.36;49.71;96750.28;7392994;19;20493;-59
2024/04/07 07:11:00;;;;;;;1.52;1.13;;;;;;;18.96;49.29;96750.38;7395157;19;20002;-56
2024/04/07 07:13:30;;;;;;;1.55;0.90;;;;;;;17.34;57.28;96743.97;7394991;19;20026;-58
2024/04/07 07:15:57;;;;;;;2.63;1.65;;;;;;;18.62;54.75;96757.00;7394916;19;20513;-57
2024/04/07 07:18:23;;;;;;;2.70;1.25;;;;;;;19.13;54.62;96760.69;7395016;19;20358;-60
2024/04/07 07:20:49;;;;;;;1.60;1.17;;;;;;;18.67;48.77;96773.44;7395180;19;20007;-56
2024/04/07 07:23:15;;;;;;;3.25;1.23;;;;;;;17.80;52.01;96776.41;7394847;19;20538;-60
2024/04/07 07:25:43;;;;;;;2.38;1.10;;;;;;;19.35;51.48;96771.59;7395063;19;20003;-54
2024/04/07 07:28:10;;;;;;;1.23;1.10;;;;;;;17.91;53.11;96758.03;7394196;19;19995;-54
2024/04/07 07:30:37;;;;;;;3.63;1.27;;;;;;;19.26;49.37;96779.22;7394580;19;20014;-57
2024/04/07 07:33:03;;;;;;;1.20;1.10;;;;;;;19.06;48.71;96783.25;7394478;19;20010;-52
2024/04/07 07:35:29;;;;;;;3.10;1.23;;;;;;;18.92;52.83;96777.09;7394348;19;20006;-57
2024/04/07 07:37:56;;;;;;;2.30;1.42;;;;;;;19.51;47.24;96774.00;7393008;19;20456;-58
2024/04/07 07:40:22;;;;;;;2.22;1.05;;;;;;;19.26;49.13;96775.75;7394426;19;20003;-54
2024/04/07 07:42:48;;;;;;;1.33;0.93;;;;;;;18.40;50.00;96779.66;7393050;19;20007;-60
2024/04/07 07:45:16;;;;;;;1.48;1.20;;;;;;;18.14;49.31;96782.19;7394462;19;20003;-60
2024/04/07 07:47:42;;;;;;;2.45;1.20;;;;;;;19.12;49.17;96784.66;7393942;19;19995;-55
2024/04/07 07:50:08;;;;;;;2.90;1.27;;;;;;;17.52;51.90;96783.44;7393991;19;19995;-59
2024/04/07 07:52:34;;;;;;;2.50;1.05;;;;;;;17.97;48.54;96791.19;7392464;19;20009;-56
2024/04/07 07:55:00;;;;;;;2.20;1.02;;;;;;;18.88;49.44;96791.50;7393900;19;19995;-55
2024/04/07 07:57:25;;;;;;;3.78;1.38;;;;;;;17.48;49.78;96790.69;7394004;19;20002;-56
2024/04/07 07:59:51;;;;;;;3.88;1.60;;;;;;;18.24;48.17;96789.53;7393739;19;20003;-59
2024/04/07 08:02:17;;;;;;;1.75;1.25;;;;;;;18.90;47.59;96786.09;7393688;19;20006;-54
2024/04/07 08:04:43;;;;;;;2.17;1.42;;;;;;;17.59;48.51;96794.47;7391744;19;20029;-54
2024/04/07 08:07:09;;;;;;;1.70;1.10;;;;;;;17.01;50.15;96790.84;7393606;19;20006;-57
2024/04/07 08:09:34;;;;;;;2.25;1.13;;;;;;;17.28;48.80;96791.94;7391754;19;19999;-56
2024/04/07 08:12:00;;;;;;;2.08;1.33;;;;;;;17.79;48.35;96786.13;7393667;19;20347;-59
2024/04/07 08:14:26;;;;;;;2.47;1.50;;;;;;;17.63;47.81;96791.53;7393469;19;20026;-55
2024/04/07 08:16:52;;;;;;;3.30;1.60;;;;;;;18.70;48.19;96790.94;7393373;19;20054;-57
2024/04/07 08:19:18;;;;;;;3.05;1.30;;;;;;;17.18;51.63;96773.13;7396982;19;19999;-55
2024/04/07 08:21:43;;;;;;;3.83;1.50;;;;;;;16.80;52.57;96775.34;7400636;19;20003;-57
2024/04/07 08:24:11;;;;;;;2.45;1.30;;;;;;;16.13;55.01;96778.31;7400457;19;20054;-57
2024/04/07 08:26:37;;;;;;;4.45;1.55;;;;;;;15.85;55.18;96774.56;7400329;19;20353;-58
2024/04/07 08:29:02;;;;;;;3.53;1.50;;;;;;;16.45;53.76;96785.34;7397958;19;20359;-58
2024/04/07 08:31:28;;;;;;;2.78;1.50;;;;;;;15.90;56.72;96789.19;7400350;19;20026;-55
2024/04/07 08:33:57;;;;;;;3.13;1.40;;;;;;;16.36;55.68;96789.34;7400305;19;20003;-56
2024/04/07 08:36:23;;;;;;;3.58;1.25;;;;;;;16.47;55.40;96788.75;7400173;19;20036;-58
2024/04/07 08:38:49;;;;;;;1.65;1.23;;;;;;;16.93;51.51;96788.69;7400329;19;20003;-57
2024/04/07 08:41:16;;;;;;;3.67;1.52;;;;;;;17.90;50.58;96790.75;7400064;19;20465;-56
2024/04/07 08:43:43;;;;;;;4.55;1.35;;;;;;;16.77;51.19;96783.44;7400073;19;20003;-52
2024/04/07 08:46:16;;;;;;;2.53;1.55;;;;;;;17.50;50.40;96791.47;7400194;19;20361;-60
2024/04/07 08:48:45;;;;;;;2.13;1.40;;;;;;;17.20;48.48;96792.41;7398651;19;20543;-59
2024/04/07 08:51:13;;;;;;;5.45;1.60;;;;;;;17.32;48.71;96789.94;7399921;19;20007;-52
2024/04/07 08:53:40;;;;;;;2.92;1.48;;;;;;;17.30;49.45;96797.97;7399589;19;20074;-60
2024/04/07 08:56:13;;;;;;;2.40;1.52;;;;;;;18.46;47.18;96790.78;7399427;19;20066;-57
2024/04/07 08:58:46;;;;;;;3.75;1.38;;;;;;;18.29;47.63;96792.72;7399324;19;20003;-58
2024/04/07 09:01:17;;;;;;;2.22;1.50;;;;;;;17.79;48.71;96791.41;7399362;19;20006;-59
2024/04/07 09:03:44;;;;;;;2.67;1.70;;;;;;;17.51;49.61;96787.88;7398048;19;19998;-56
2024/04/07 09:06:10;;;;;;;3.40;1.58;;;;;;;18.04;50.43;96786.34;7399424;19;20003;-53
2024/04/07 09:08:36;;;;;;;1.80;1.40;;;;;;;17.61;47.50;96779.38;7398062;19;20014;-56
2024/04/07 09:11:02;;;;;;;2.13;1.55;;;;;;;19.02;46.57;96787.06;7399038;19;19999;-58
2024/04/07 09:13:27;;;;;;;2.05;1.17;;;;;;;17.97;47.91;96793.81;7399209;19;20007;-55
2024/04/07 09:15:53;;;;;;;2.40;1.30;;;;;;;18.19;47.02;96781.91;7398796;19;20360;-57
2024/04/07 09:18:20;;;;;;;2.00;1.27;;;;;;;18.68;45.47;96806.94;7399089;19;20109;-51
2024/04/07 09:20:46;;;;;;;2.95;1.15;;;;;;;18.66;47.48;96802.69;7398648;19;20002;-57
2024/04/07 09:23:13;;;;;;;2.42;1.40;;;;;;;19.85;46.96;96791.97;7398571;19;20010;-55
2024/04/07 09:25:39;;;;;;;2.47;1.70;;;;;;;18.59;44.92;96786.34;7398456;19;20002;-58
2024/04/07 09:28:05;;;;;;;2.15;1.40;;;;;;;18.84;45.31;96784.69;7398003;19;20005;-51
2024/04/07 09:30:31;;;;;;;5.75;1.63;;;;;;;18.78;44.28;96793.09;7398303;19;20007;-52
2024/04/07 09:32:58;;;;;;;3.30;1.45;;;;;;;19.35;44.06;96788.34;7398174;19;19999;-58
2024/04/07 09:35:25;;;;;;;2.67;1.33;;;;;;;18.93;44.16;96781.41;7398128;19;20013;-56
2024/04/07 09:37:51;;;;;;;1.50;1.20;;;;;;;18.49;46.25;96782.63;7398032;19;20477;-54
2024/04/07 09:40:17;;;;;;;5.75;1.50;;;;;;;19.90;45.53;96784.53;7398059;19;20058;-59
2024/04/07 09:42:45;;;;;;;2.55;1.38;;;;;;;19.40;44.54;96783.56;7397920;19;19995;-55
2024/04/07 09:45:11;;;;;;;4.40;1.83;;;;;;;19.39;44.94;96779.22;7397796;19;19999;-58
2024/04/07 09:47:44;;;;;;;2.35;1.50;;;;;;;18.68;44.52;96788.41;7397859;19;19999;-57
2024/04/07 09:50:20;;;;;;;3.58;1.30;;;;;;;18.56;45.73;96792.72;7398234;19;20058;-53
2024/04/07 09:52:51;;;;;;;1.98;1.08;;;;;;;18.50;45.04;96801.06;7398030;19;19998;-57
2024/04/07 09:55:17;;;;;;;2.05;1.30;;;;;;;19.00;41.72;96784.50;7397922;19;20403;-58
2024/04/07 09:57:44;;;;;;;2.08;1.27;;;;;;;19.51;42.20;96790.75;7397679;19;20002;-57
2024/04/07 10:00:12;;;;;;;2.30;1.48;;;;;;;19.79;40.94;96790.59;7397401;19;20031;-55
2024/04/07 10:02:42;;;;;;;4.13;1.20;;;;;;;18.86;43.03;96782.78;7397380;19;20118;-55
2024/04/07 10:05:09;;;;;;;5.75;1.38;;;;;;;19.10;40.37;96789.19;7395331;19;20013;-56
2024/04/07 10:07:36;;;;;;;1.70;1.00;;;;;;;19.61;40.14;96795.41;7397091;19;20345;-55
2024/04/07 10:10:08;;;;;;;2.05;1.08;;;;;;;17.90;40.97;96805.75;7395142;19;20003;-58
2024/04/07 10:12:34;;;;;;;3.97;0.98;;;;;;;17.84;43.27;96801.72;7396880;19;19999;-58
2024/04/07 10:15:00;;;;;;;4.63;1.13;;;;;;;18.73;42.28;96790.75;7396846;19;20007;-59
2024/04/07 10:17:30;;;;;;;3.63;1.45;;;;;;;19.14;43.00;96788.06;7396580;19;20010;-56
2024/04/07 10:19:57;;;;;;;3.67;1.27;;;;;;;18.82;44.12;96786.63;7397054;19;20407;-59
2024/04/07 10:22:24;;;;;;;5.75;1.15;;;;;;;18.84;41.66;96781.22;7396507;19;20066;-57
2024/04/07 10:24:52;;;;;;;3.05;1.35;;;;;;;19.81;42.26;96781.56;7396546;19;20003;-59
2024/04/07 10:27:23;;;;;;;2.97;1.30;;;;;;;19.54;40.89;96769.31;7396361;19;20003;-56
2024/04/07 10:29:56;;;;;;;1.80;1.10;;;;;;;19.26;38.65;96752.72;7394789;19;20023;-53
2024/04/07 10:32:30;;;;;;;4.47;1.35;;;;;;;20.25;38.38;96757.22;7396596;19;20079;-53
2024/04/07 10:35:10;;;;;;;2.65;1.35;;;;;;;20.20;38.74;96759.41;7396212;19;19999;-58
2024/04/07 10:37:44;;;;;;;3.85;1.20;;;;;;;19.15;40.76;96757.94;7396160;19;20018;-55
2024/04/07 10:40:10;;;;;;;5.18;1.30;;;;;;;19.81;39.29;96754.22;7396152;19;20465;-54
2024/04/07 10:42:37;;;;;;;2.33;1.20;;;;;;;19.29;38.57;96757.81;7394309;19;20033;-53
2024/04/07 10:45:03;;;;;;;1.60;1.05;;;;;;;20.97;39.52;96749.25;7395805;19;20012;-57
2024/04/07 10:47:33;;;;;;;5.10;1.30;;;;;;;20.50;36.67;96747.41;7395739;19;20009;-57
2024/04/07 10:49:59;;;;;;;1.92;1.10;;;;;;;21.02;39.54;96754.22;7394147;19;20035;-56
2024/04/07 10:52:29;;;;;;;2.78;1.40;;;;;;;19.72;37.68;96747.75;7395587;19;19999;-56
2024/04/07 10:54:59;;;;;;;3.33;1.50;;;;;;;19.89;38.51;96735.91;7395650;19;20006;-55
2024/04/07 10:57:25;;;;;;;2.42;1.00;;;;;;;19.59;36.46;96725.72;7395775;19;19999;-57
2024/04/07 10:59:50;;;;;;;2.88;1.00;;;;;;;20.32;36.47;96745.19;7395422;19;20509;-60
2024/04/07 11:02:17;;;;;;;2.42;1.15;;;;;;;19.54;37.87;96744.63;7395352;19;19998;-57
2024/04/07 11:04:43;;;;;;;1.40;1.02;;;;;;;18.65;38.93;96743.56;7393731;19;20014;-60
2024/04/07 11:07:12;;;;;;;2.42;1.17;;;;;;;18.10;39.31;96761.28;7395226;19;20010;-61
2024/04/07 11:09:42;;;;;;;4.32;1.27;;;;;;;16.91;42.89;96801.13;7393727;19;20020;-57
2024/04/07 11:12:09;;;;;;;3.70;1.10;;;;;;;15.79;48.39;96778.41;7395093;19;20006;-58
2024/04/07 11:14:36;;;;;;;1.45;1.00;;;;;;;15.23;50.91;96761.16;7395068;19;20003;-53
2024/04/07 11:17:09;;;;;;;2.88;1.10;;;;;;;14.78;53.98;96774.06;7395048;19;20009;-57
2024/04/07 11:19:39;;;;;;;2.38;1.17;;;;;;;14.59;55.61;96756.53;7394921;19;20003;-59
2024/04/07 11:22:06;;;;;;;4.85;1.15;;;;;;;14.21;59.14;96746.97;7394955;19;20002;-56
2024/04/07 11:24:33;;;;;;;3.05;1.10;;;;;;;14.17;60.56;96752.50;7394781;19;20007;-57
2024/04/07 11:27:00;;;;;;;1.23;0.90;;;;;;;14.05;61.53;96757.41;7394779;19;20003;-58
2024/04/07 11:29:29;;;;;;;2.63;1.23;;;;;;;14.14;64.91;96756.97;7391808;19;20006;-57
2024/04/07 11:31:57;;;;;;;4.07;1.30;;;;;;;14.17;65.83;96758.59;7394748;19;20066;-59